sensor_id;sensor_type;location;lat;lon;timestamp;P1;durP1;ratioP1;P2;durP2;ratioP2
36191;SDS011;22233;42.708;23.360;2024-02-26T00:00:06;37.55;;;26.95;;
36191;SDS011;22233;42.708;23.360;2024-02-26T00:02:34;37.28;;;27.10;;
36191;SDS011;22233;42.708;23.360;2024-02-26T00:05:06;37.20;;;27.13;;
36191;SDS011;22233;42.708;23.360;2024-02-26T00:07:32;36.53;;;28.17;;
36191;SDS011;22233;42.708;23.360;2024-02-26T00:09:57;34.38;;;26.65;;
36191;SDS011;22233;42.708;23.360;2024-02-26T00:12:22;36.80;;;27.15;;
36191;SDS011;22233;42.708;23.360;2024-02-26T00:14:48;35.88;;;26.17;;
36191;SDS011;22233;42.708;23.360;2024-02-26T00:17:14;40.00;;;29.35;;
36191;SDS011;22233;42.708;23.360;2024-02-26T00:19:40;34.03;;;26.33;;
36191;SDS011;22233;42.708;23.360;2024-02-26T00:22:06;37.70;;;27.55;;
36191;SDS011;22233;42.708;23.360;2024-02-26T00:24:31;36.17;;;26.98;;
36191;SDS011;22233;42.708;23.360;2024-02-26T00:26:57;35.33;;;26.38;;
36191;SDS011;22233;42.708;23.360;2024-02-26T00:29:22;34.35;;;25.80;;
36191;SDS011;22233;42.708;23.360;2024-02-26T00:31:48;31.80;;;24.75;;
36191;SDS011;22233;42.708;23.360;2024-02-26T00:34:14;33.00;;;25.30;;
36191;SDS011;22233;42.708;23.360;2024-02-26T00:36:39;32.05;;;23.85;;
36191;SDS011;22233;42.708;23.360;2024-02-26T00:39:05;32.75;;;24.65;;
36191;SDS011;22233;42.708;23.360;2024-02-26T00:41:30;34.90;;;24.38;;
36191;SDS011;22233;42.708;23.360;2024-02-26T00:43:55;31.42;;;25.10;;
36191;SDS011;22233;42.708;23.360;2024-02-26T00:46:21;34.17;;;22.95;;
36191;SDS011;22233;42.708;23.360;2024-02-26T00:48:46;28.55;;;23.80;;
36191;SDS011;22233;42.708;23.360;2024-02-26T00:51:11;36.60;;;25.75;;
36191;SDS011;22233;42.708;23.360;2024-02-26T00:53:37;34.35;;;24.77;;
36191;SDS011;22233;42.708;23.360;2024-02-26T00:56:02;33.90;;;24.85;;
36191;SDS011;22233;42.708;23.360;2024-02-26T00:58:28;37.05;;;25.98;;
36191;SDS011;22233;42.708;23.360;2024-02-26T01:00:53;34.28;;;25.20;;
36191;SDS011;22233;42.708;23.360;2024-02-26T01:03:19;34.08;;;24.80;;
36191;SDS011;22233;42.708;23.360;2024-02-26T01:05:44;32.72;;;24.60;;
36191;SDS011;22233;42.708;23.360;2024-02-26T01:08:10;32.30;;;25.55;;
36191;SDS011;22233;42.708;23.360;2024-02-26T01:10:35;40.15;;;29.70;;
36191;SDS011;22233;42.708;23.360;2024-02-26T01:13:01;37.25;;;26.33;;
36191;SDS011;22233;42.708;23.360;2024-02-26T01:15:26;30.10;;;23.90;;
36191;SDS011;22233;42.708;23.360;2024-02-26T01:17:52;35.40;;;26.30;;
36191;SDS011;22233;42.708;23.360;2024-02-26T01:20:18;37.47;;;25.02;;
36191;SDS011;22233;42.708;23.360;2024-02-26T01:22:43;30.88;;;22.73;;
36191;SDS011;22233;42.708;23.360;2024-02-26T01:25:09;30.73;;;23.48;;
36191;SDS011;22233;42.708;23.360;2024-02-26T01:27:36;28.52;;;22.70;;
36191;SDS011;22233;42.708;23.360;2024-02-26T01:30:05;27.40;;;21.88;;
36191;SDS011;22233;42.708;23.360;2024-02-26T01:32:31;30.80;;;21.95;;
36191;SDS011;22233;42.708;23.360;2024-02-26T01:34:56;29.67;;;22.55;;
36191;SDS011;22233;42.708;23.360;2024-02-26T01:37:22;28.95;;;22.13;;
36191;SDS011;22233;42.708;23.360;2024-02-26T01:39:47;25.35;;;21.55;;
36191;SDS011;22233;42.708;23.360;2024-02-26T01:42:12;27.10;;;22.17;;
36191;SDS011;22233;42.708;23.360;2024-02-26T01:44:38;31.05;;;22.48;;
36191;SDS011;22233;42.708;23.360;2024-02-26T01:47:04;27.02;;;22.92;;
36191;SDS011;22233;42.708;23.360;2024-02-26T01:49:33;32.45;;;23.73;;
36191;SDS011;22233;42.708;23.360;2024-02-26T01:52:00;31.13;;;22.80;;
36191;SDS011;22233;42.708;23.360;2024-02-26T01:54:26;31.58;;;24.50;;
36191;SDS011;22233;42.708;23.360;2024-02-26T01:56:52;33.05;;;23.70;;
36191;SDS011;22233;42.708;23.360;2024-02-26T01:59:18;30.35;;;22.85;;
36191;SDS011;22233;42.708;23.360;2024-02-26T02:01:45;31.90;;;23.80;;
36191;SDS011;22233;42.708;23.360;2024-02-26T02:04:17;29.50;;;23.52;;
36191;SDS011;22233;42.708;23.360;2024-02-26T02:06:43;30.67;;;24.08;;
36191;SDS011;22233;42.708;23.360;2024-02-26T02:09:11;30.48;;;24.30;;
36191;SDS011;22233;42.708;23.360;2024-02-26T02:11:36;33.03;;;24.60;;
36191;SDS011;22233;42.708;23.360;2024-02-26T02:14:02;31.48;;;23.63;;
36191;SDS011;22233;42.708;23.360;2024-02-26T02:16:28;29.52;;;22.83;;
36191;SDS011;22233;42.708;23.360;2024-02-26T02:18:53;32.72;;;24.27;;
36191;SDS011;22233;42.708;23.360;2024-02-26T02:21:19;31.73;;;25.00;;
36191;SDS011;22233;42.708;23.360;2024-02-26T02:23:44;36.42;;;25.50;;
36191;SDS011;22233;42.708;23.360;2024-02-26T02:26:11;30.20;;;23.95;;
36191;SDS011;22233;42.708;23.360;2024-02-26T02:28:38;31.02;;;23.33;;
36191;SDS011;22233;42.708;23.360;2024-02-26T02:31:05;32.17;;;24.15;;
36191;SDS011;22233;42.708;23.360;2024-02-26T02:33:30;32.60;;;24.63;;
36191;SDS011;22233;42.708;23.360;2024-02-26T02:35:56;31.25;;;24.05;;
36191;SDS011;22233;42.708;23.360;2024-02-26T02:38:23;30.95;;;24.15;;
36191;SDS011;22233;42.708;23.360;2024-02-26T02:40:50;32.10;;;24.13;;
36191;SDS011;22233;42.708;23.360;2024-02-26T02:43:16;36.42;;;25.08;;
36191;SDS011;22233;42.708;23.360;2024-02-26T02:45:41;30.70;;;23.85;;
36191;SDS011;22233;42.708;23.360;2024-02-26T02:48:07;28.33;;;23.13;;
36191;SDS011;22233;42.708;23.360;2024-02-26T02:50:32;31.38;;;24.13;;
36191;SDS011;22233;42.708;23.360;2024-02-26T02:52:57;33.60;;;25.67;;
36191;SDS011;22233;42.708;23.360;2024-02-26T02:55:23;32.85;;;25.17;;
36191;SDS011;22233;42.708;23.360;2024-02-26T02:57:48;34.60;;;25.27;;
36191;SDS011;22233;42.708;23.360;2024-02-26T03:00:13;34.22;;;25.95;;
36191;SDS011;22233;42.708;23.360;2024-02-26T03:02:39;38.00;;;27.23;;
36191;SDS011;22233;42.708;23.360;2024-02-26T03:05:04;33.33;;;25.73;;
36191;SDS011;22233;42.708;23.360;2024-02-26T03:07:30;32.30;;;25.52;;
36191;SDS011;22233;42.708;23.360;2024-02-26T03:09:56;35.20;;;26.02;;
36191;SDS011;22233;42.708;23.360;2024-02-26T03:12:21;32.78;;;24.23;;
36191;SDS011;22233;42.708;23.360;2024-02-26T03:14:46;34.08;;;25.02;;
36191;SDS011;22233;42.708;23.360;2024-02-26T03:17:12;33.47;;;24.55;;
36191;SDS011;22233;42.708;23.360;2024-02-26T03:19:37;33.65;;;24.20;;
36191;SDS011;22233;42.708;23.360;2024-02-26T03:22:03;34.95;;;24.13;;
36191;SDS011;22233;42.708;23.360;2024-02-26T03:24:28;33.80;;;25.00;;
36191;SDS011;22233;42.708;23.360;2024-02-26T03:26:53;31.85;;;25.77;;
36191;SDS011;22233;42.708;23.360;2024-02-26T03:29:19;34.97;;;24.88;;
36191;SDS011;22233;42.708;23.360;2024-02-26T03:31:44;30.42;;;24.77;;
36191;SDS011;22233;42.708;23.360;2024-02-26T03:34:10;33.83;;;25.75;;
36191;SDS011;22233;42.708;23.360;2024-02-26T03:36:37;30.52;;;25.17;;
36191;SDS011;22233;42.708;23.360;2024-02-26T03:39:02;31.75;;;24.48;;
36191;SDS011;22233;42.708;23.360;2024-02-26T03:41:32;30.20;;;25.35;;
36191;SDS011;22233;42.708;23.360;2024-02-26T03:43:58;34.25;;;26.40;;
36191;SDS011;22233;42.708;23.360;2024-02-26T03:46:23;36.45;;;28.02;;
36191;SDS011;22233;42.708;23.360;2024-02-26T03:48:49;34.25;;;29.50;;
36191;SDS011;22233;42.708;23.360;2024-02-26T03:51:14;33.58;;;28.33;;
36191;SDS011;22233;42.708;23.360;2024-02-26T03:53:40;35.25;;;26.50;;
36191;SDS011;22233;42.708;23.360;2024-02-26T03:56:05;31.83;;;24.75;;
36191;SDS011;22233;42.708;23.360;2024-02-26T03:58:31;31.88;;;25.27;;
36191;SDS011;22233;42.708;23.360;2024-02-26T04:00:57;29.88;;;23.95;;
36191;SDS011;22233;42.708;23.360;2024-02-26T04:03:22;31.95;;;22.90;;
36191;SDS011;22233;42.708;23.360;2024-02-26T04:05:47;26.35;;;19.90;;
36191;SDS011;22233;42.708;23.360;2024-02-26T04:08:13;22.85;;;19.45;;
36191;SDS011;22233;42.708;23.360;2024-02-26T04:10:38;23.98;;;16.92;;
36191;SDS011;22233;42.708;23.360;2024-02-26T04:13:04;22.40;;;16.70;;
36191;SDS011;22233;42.708;23.360;2024-02-26T04:15:30;22.00;;;17.27;;
36191;SDS011;22233;42.708;23.360;2024-02-26T04:17:56;22.58;;;16.95;;
36191;SDS011;22233;42.708;23.360;2024-02-26T04:20:22;23.50;;;16.70;;
36191;SDS011;22233;42.708;23.360;2024-02-26T04:22:47;26.60;;;17.55;;
36191;SDS011;22233;42.708;23.360;2024-02-26T04:25:12;21.75;;;16.30;;
36191;SDS011;22233;42.708;23.360;2024-02-26T04:27:38;20.77;;;16.10;;
36191;SDS011;22233;42.708;23.360;2024-02-26T04:30:04;20.50;;;15.82;;
36191;SDS011;22233;42.708;23.360;2024-02-26T04:32:30;19.88;;;16.75;;
36191;SDS011;22233;42.708;23.360;2024-02-26T04:34:56;23.80;;;16.83;;
36191;SDS011;22233;42.708;23.360;2024-02-26T04:37:21;21.73;;;16.63;;
36191;SDS011;22233;42.708;23.360;2024-02-26T04:39:46;21.65;;;16.55;;
36191;SDS011;22233;42.708;23.360;2024-02-26T04:42:12;20.98;;;16.23;;
36191;SDS011;22233;42.708;23.360;2024-02-26T04:44:37;24.95;;;17.20;;
36191;SDS011;22233;42.708;23.360;2024-02-26T04:47:02;22.80;;;18.27;;
36191;SDS011;22233;42.708;23.360;2024-02-26T04:49:28;25.52;;;17.48;;
36191;SDS011;22233;42.708;23.360;2024-02-26T04:51:53;24.83;;;19.38;;
36191;SDS011;22233;42.708;23.360;2024-02-26T04:54:19;23.20;;;17.45;;
36191;SDS011;22233;42.708;23.360;2024-02-26T04:56:44;24.98;;;19.92;;
36191;SDS011;22233;42.708;23.360;2024-02-26T04:59:10;29.45;;;22.60;;
36191;SDS011;22233;42.708;23.360;2024-02-26T05:01:35;35.70;;;22.88;;
36191;SDS011;22233;42.708;23.360;2024-02-26T05:04:01;30.42;;;20.45;;
36191;SDS011;22233;42.708;23.360;2024-02-26T05:06:28;30.95;;;22.40;;
36191;SDS011;22233;42.708;23.360;2024-02-26T05:08:54;24.50;;;20.33;;
36191;SDS011;22233;42.708;23.360;2024-02-26T05:11:19;25.30;;;19.48;;
36191;SDS011;22233;42.708;23.360;2024-02-26T05:13:44;25.05;;;18.27;;
36191;SDS011;22233;42.708;23.360;2024-02-26T05:16:10;24.08;;;18.00;;
36191;SDS011;22233;42.708;23.360;2024-02-26T05:18:36;23.98;;;19.02;;
36191;SDS011;22233;42.708;23.360;2024-02-26T05:21:01;27.27;;;18.30;;
36191;SDS011;22233;42.708;23.360;2024-02-26T05:23:28;24.67;;;18.33;;
36191;SDS011;22233;42.708;23.360;2024-02-26T05:25:53;25.38;;;19.58;;
36191;SDS011;22233;42.708;23.360;2024-02-26T05:28:19;26.95;;;19.48;;
36191;SDS011;22233;42.708;23.360;2024-02-26T05:30:45;28.85;;;19.17;;
36191;SDS011;22233;42.708;23.360;2024-02-26T05:33:11;26.67;;;19.67;;
36191;SDS011;22233;42.708;23.360;2024-02-26T05:35:36;25.67;;;19.50;;
36191;SDS011;22233;42.708;23.360;2024-02-26T05:38:02;28.17;;;21.40;;
36191;SDS011;22233;42.708;23.360;2024-02-26T05:40:28;28.20;;;20.98;;
36191;SDS011;22233;42.708;23.360;2024-02-26T05:42:55;28.15;;;20.75;;
36191;SDS011;22233;42.708;23.360;2024-02-26T05:45:20;26.83;;;19.90;;
36191;SDS011;22233;42.708;23.360;2024-02-26T05:47:46;26.58;;;19.88;;
36191;SDS011;22233;42.708;23.360;2024-02-26T05:50:12;30.98;;;19.77;;
36191;SDS011;22233;42.708;23.360;2024-02-26T05:52:38;28.58;;;21.10;;
36191;SDS011;22233;42.708;23.360;2024-02-26T05:55:04;32.30;;;21.73;;
36191;SDS011;22233;42.708;23.360;2024-02-26T05:57:30;31.25;;;22.02;;
36191;SDS011;22233;42.708;23.360;2024-02-26T05:59:59;32.67;;;23.48;;
36191;SDS011;22233;42.708;23.360;2024-02-26T06:02:30;31.92;;;22.58;;
36191;SDS011;22233;42.708;23.360;2024-02-26T06:04:56;32.42;;;23.00;;
36191;SDS011;22233;42.708;23.360;2024-02-26T06:07:21;31.25;;;22.40;;
36191;SDS011;22233;42.708;23.360;2024-02-26T06:09:47;34.85;;;23.48;;
36191;SDS011;22233;42.708;23.360;2024-02-26T06:12:13;28.55;;;21.85;;
36191;SDS011;22233;42.708;23.360;2024-02-26T06:14:39;30.10;;;21.27;;
36191;SDS011;22233;42.708;23.360;2024-02-26T06:17:04;30.20;;;22.95;;
36191;SDS011;22233;42.708;23.360;2024-02-26T06:19:30;31.90;;;21.92;;
36191;SDS011;22233;42.708;23.360;2024-02-26T06:21:55;29.33;;;21.48;;
36191;SDS011;22233;42.708;23.360;2024-02-26T06:24:21;25.83;;;19.98;;
36191;SDS011;22233;42.708;23.360;2024-02-26T06:26:47;36.17;;;23.92;;
36191;SDS011;22233;42.708;23.360;2024-02-26T06:29:13;28.40;;;22.85;;
36191;SDS011;22233;42.708;23.360;2024-02-26T06:31:38;30.50;;;24.05;;
36191;SDS011;22233;42.708;23.360;2024-02-26T06:34:03;29.73;;;21.83;;
36191;SDS011;22233;42.708;23.360;2024-02-26T06:36:29;30.15;;;22.33;;
36191;SDS011;22233;42.708;23.360;2024-02-26T06:38:56;27.50;;;20.98;;
36191;SDS011;22233;42.708;23.360;2024-02-26T06:41:21;23.17;;;17.35;;
36191;SDS011;22233;42.708;23.360;2024-02-26T06:43:52;27.02;;;20.30;;
36191;SDS011;22233;42.708;23.360;2024-02-26T06:46:18;26.75;;;20.02;;
36191;SDS011;22233;42.708;23.360;2024-02-26T06:48:43;25.10;;;18.95;;
36191;SDS011;22233;42.708;23.360;2024-02-26T06:51:09;24.85;;;19.40;;
36191;SDS011;22233;42.708;23.360;2024-02-26T06:53:34;23.48;;;19.17;;
36191;SDS011;22233;42.708;23.360;2024-02-26T06:56:00;25.40;;;19.55;;
36191;SDS011;22233;42.708;23.360;2024-02-26T06:58:25;28.25;;;20.90;;
36191;SDS011;22233;42.708;23.360;2024-02-26T07:00:51;26.75;;;19.85;;
36191;SDS011;22233;42.708;23.360;2024-02-26T07:03:16;28.27;;;19.25;;
36191;SDS011;22233;42.708;23.360;2024-02-26T07:05:41;30.15;;;19.40;;
36191;SDS011;22233;42.708;23.360;2024-02-26T07:08:07;26.08;;;20.80;;
36191;SDS011;22233;42.708;23.360;2024-02-26T07:10:32;23.83;;;19.23;;
36191;SDS011;22233;42.708;23.360;2024-02-26T07:12:58;22.83;;;19.73;;
36191;SDS011;22233;42.708;23.360;2024-02-26T07:15:23;23.98;;;18.95;;
36191;SDS011;22233;42.708;23.360;2024-02-26T07:17:49;25.02;;;18.42;;
36191;SDS011;22233;42.708;23.360;2024-02-26T07:20:14;23.35;;;18.55;;
36191;SDS011;22233;42.708;23.360;2024-02-26T07:22:40;24.00;;;19.45;;
36191;SDS011;22233;42.708;23.360;2024-02-26T07:25:07;22.83;;;19.75;;
36191;SDS011;22233;42.708;23.360;2024-02-26T07:27:33;21.60;;;19.17;;
36191;SDS011;22233;42.708;23.360;2024-02-26T07:29:59;25.65;;;19.70;;
36191;SDS011;22233;42.708;23.360;2024-02-26T07:32:24;23.42;;;18.77;;
36191;SDS011;22233;42.708;23.360;2024-02-26T07:34:49;23.55;;;19.10;;
36191;SDS011;22233;42.708;23.360;2024-02-26T07:37:15;27.50;;;20.58;;
36191;SDS011;22233;42.708;23.360;2024-02-26T07:39:40;24.52;;;19.52;;
36191;SDS011;22233;42.708;23.360;2024-02-26T07:42:06;27.55;;;20.75;;
36191;SDS011;22233;42.708;23.360;2024-02-26T07:44:32;30.42;;;27.23;;
36191;SDS011;22233;42.708;23.360;2024-02-26T07:46:58;39.77;;;33.63;;
36191;SDS011;22233;42.708;23.360;2024-02-26T07:49:23;40.65;;;36.15;;
36191;SDS011;22233;42.708;23.360;2024-02-26T07:51:49;36.75;;;32.78;;
36191;SDS011;22233;42.708;23.360;2024-02-26T07:54:14;34.08;;;30.40;;
36191;SDS011;22233;42.708;23.360;2024-02-26T07:56:41;33.60;;;29.83;;
36191;SDS011;22233;42.708;23.360;2024-02-26T07:59:06;32.90;;;27.77;;
36191;SDS011;22233;42.708;23.360;2024-02-26T08:01:32;31.60;;;24.00;;
36191;SDS011;22233;42.708;23.360;2024-02-26T08:03:58;30.25;;;22.98;;
36191;SDS011;22233;42.708;23.360;2024-02-26T08:06:24;28.73;;;22.15;;
36191;SDS011;22233;42.708;23.360;2024-02-26T08:08:50;27.63;;;20.27;;
36191;SDS011;22233;42.708;23.360;2024-02-26T08:11:15;25.13;;;20.80;;
36191;SDS011;22233;42.708;23.360;2024-02-26T08:13:41;27.08;;;20.70;;
36191;SDS011;22233;42.708;23.360;2024-02-26T08:16:07;26.20;;;20.58;;
36191;SDS011;22233;42.708;23.360;2024-02-26T08:18:32;23.15;;;20.65;;
36191;SDS011;22233;42.708;23.360;2024-02-26T08:20:57;24.20;;;19.98;;
36191;SDS011;22233;42.708;23.360;2024-02-26T08:23:23;29.33;;;20.42;;
36191;SDS011;22233;42.708;23.360;2024-02-26T08:25:48;28.38;;;20.58;;
36191;SDS011;22233;42.708;23.360;2024-02-26T08:28:14;23.90;;;20.20;;
36191;SDS011;22233;42.708;23.360;2024-02-26T08:30:39;26.48;;;20.63;;
36191;SDS011;22233;42.708;23.360;2024-02-26T08:33:05;27.90;;;23.40;;
36191;SDS011;22233;42.708;23.360;2024-02-26T08:35:30;26.33;;;21.77;;
36191;SDS011;22233;42.708;23.360;2024-02-26T08:37:55;27.13;;;22.58;;
36191;SDS011;22233;42.708;23.360;2024-02-26T08:40:21;32.90;;;23.65;;
36191;SDS011;22233;42.708;23.360;2024-02-26T08:42:46;27.05;;;21.40;;
36191;SDS011;22233;42.708;23.360;2024-02-26T08:45:12;33.75;;;21.00;;
36191;SDS011;22233;42.708;23.360;2024-02-26T08:47:40;28.42;;;20.17;;
36191;SDS011;22233;42.708;23.360;2024-02-26T08:50:05;33.53;;;20.25;;
36191;SDS011;22233;42.708;23.360;2024-02-26T08:52:31;27.80;;;18.63;;
36191;SDS011;22233;42.708;23.360;2024-02-26T08:54:57;20.08;;;16.95;;
36191;SDS011;22233;42.708;23.360;2024-02-26T08:57:22;25.65;;;18.73;;
36191;SDS011;22233;42.708;23.360;2024-02-26T08:59:48;24.83;;;17.58;;
36191;SDS011;22233;42.708;23.360;2024-02-26T09:02:14;23.88;;;18.85;;
36191;SDS011;22233;42.708;23.360;2024-02-26T09:04:39;24.63;;;16.88;;
36191;SDS011;22233;42.708;23.360;2024-02-26T09:07:05;24.35;;;18.98;;
36191;SDS011;22233;42.708;23.360;2024-02-26T09:09:31;22.15;;;17.17;;
36191;SDS011;22233;42.708;23.360;2024-02-26T09:11:56;23.92;;;19.50;;
36191;SDS011;22233;42.708;23.360;2024-02-26T09:14:22;26.63;;;19.95;;
36191;SDS011;22233;42.708;23.360;2024-02-26T09:16:47;24.80;;;19.00;;
36191;SDS011;22233;42.708;23.360;2024-02-26T09:19:16;21.75;;;16.75;;
36191;SDS011;22233;42.708;23.360;2024-02-26T09:21:42;19.27;;;13.48;;
36191;SDS011;22233;42.708;23.360;2024-02-26T09:24:10;15.88;;;12.43;;
36191;SDS011;22233;42.708;23.360;2024-02-26T09:26:36;13.27;;;11.23;;
36191;SDS011;22233;42.708;23.360;2024-02-26T09:29:02;13.35;;;11.18;;
36191;SDS011;22233;42.708;23.360;2024-02-26T09:31:29;13.63;;;9.85;;
36191;SDS011;22233;42.708;23.360;2024-02-26T09:33:54;11.57;;;8.65;;
36191;SDS011;22233;42.708;23.360;2024-02-26T09:36:19;11.85;;;7.97;;
36191;SDS011;22233;42.708;23.360;2024-02-26T09:38:46;7.85;;;7.03;;
36191;SDS011;22233;42.708;23.360;2024-02-26T09:41:14;10.48;;;6.35;;
36191;SDS011;22233;42.708;23.360;2024-02-26T09:43:40;6.10;;;5.50;;
36191;SDS011;22233;42.708;23.360;2024-02-26T09:46:10;8.60;;;5.43;;
36191;SDS011;22233;42.708;23.360;2024-02-26T09:48:35;9.05;;;6.88;;
36191;SDS011;22233;42.708;23.360;2024-02-26T09:51:02;8.15;;;6.13;;
36191;SDS011;22233;42.708;23.360;2024-02-26T09:53:29;10.63;;;6.35;;
36191;SDS011;22233;42.708;23.360;2024-02-26T09:55:56;11.60;;;6.03;;
36191;SDS011;22233;42.708;23.360;2024-02-26T09:58:22;10.15;;;5.60;;
36191;SDS011;22233;42.708;23.360;2024-02-26T10:00:51;7.83;;;6.30;;
36191;SDS011;22233;42.708;23.360;2024-02-26T10:03:21;9.50;;;6.32;;
36191;SDS011;22233;42.708;23.360;2024-02-26T10:05:50;7.30;;;5.57;;
36191;SDS011;22233;42.708;23.360;2024-02-26T10:08:16;6.28;;;5.47;;
36191;SDS011;22233;42.708;23.360;2024-02-26T10:13:09;7.28;;;5.15;;
36191;SDS011;22233;42.708;23.360;2024-02-26T10:15:36;7.85;;;4.95;;
36191;SDS011;22233;42.708;23.360;2024-02-26T10:18:05;6.75;;;5.50;;
36191;SDS011;22233;42.708;23.360;2024-02-26T10:20:31;5.72;;;5.13;;
36191;SDS011;22233;42.708;23.360;2024-02-26T10:22:57;7.82;;;5.45;;
36191;SDS011;22233;42.708;23.360;2024-02-26T10:25:22;7.32;;;5.20;;
36191;SDS011;22233;42.708;23.360;2024-02-26T10:27:48;6.97;;;5.32;;
36191;SDS011;22233;42.708;23.360;2024-02-26T10:30:18;5.00;;;4.50;;
36191;SDS011;22233;42.708;23.360;2024-02-26T10:32:45;5.47;;;4.88;;
36191;SDS011;22233;42.708;23.360;2024-02-26T10:35:12;7.93;;;5.35;;
36191;SDS011;22233;42.708;23.360;2024-02-26T10:37:39;6.30;;;4.97;;
36191;SDS011;22233;42.708;23.360;2024-02-26T10:40:06;8.10;;;5.13;;
36191;SDS011;22233;42.708;23.360;2024-02-26T10:42:34;6.20;;;4.60;;
36191;SDS011;22233;42.708;23.360;2024-02-26T10:45:00;6.65;;;5.60;;
36191;SDS011;22233;42.708;23.360;2024-02-26T10:47:27;7.07;;;4.97;;
36191;SDS011;22233;42.708;23.360;2024-02-26T10:49:53;8.48;;;4.40;;
36191;SDS011;22233;42.708;23.360;2024-02-26T10:52:18;6.18;;;5.60;;
36191;SDS011;22233;42.708;23.360;2024-02-26T10:54:46;9.75;;;5.75;;
36191;SDS011;22233;42.708;23.360;2024-02-26T10:57:13;8.60;;;5.28;;
36191;SDS011;22233;42.708;23.360;2024-02-26T10:59:41;6.50;;;5.22;;
36191;SDS011;22233;42.708;23.360;2024-02-26T11:02:09;7.03;;;5.50;;
36191;SDS011;22233;42.708;23.360;2024-02-26T11:04:35;6.30;;;5.07;;
36191;SDS011;22233;42.708;23.360;2024-02-26T11:07:03;11.38;;;5.65;;
36191;SDS011;22233;42.708;23.360;2024-02-26T11:09:29;6.25;;;5.57;;
36191;SDS011;22233;42.708;23.360;2024-02-26T11:11:56;5.88;;;4.90;;
36191;SDS011;22233;42.708;23.360;2024-02-26T11:14:22;6.57;;;4.50;;
36191;SDS011;22233;42.708;23.360;2024-02-26T11:16:50;7.55;;;4.97;;
36191;SDS011;22233;42.708;23.360;2024-02-26T11:19:16;10.80;;;5.32;;
36191;SDS011;22233;42.708;23.360;2024-02-26T11:21:43;6.15;;;4.15;;
36191;SDS011;22233;42.708;23.360;2024-02-26T11:24:10;7.13;;;4.10;;
36191;SDS011;22233;42.708;23.360;2024-02-26T11:26:39;6.07;;;3.95;;
36191;SDS011;22233;42.708;23.360;2024-02-26T11:29:10;6.00;;;4.18;;
36191;SDS011;22233;42.708;23.360;2024-02-26T11:31:38;6.80;;;4.15;;
36191;SDS011;22233;42.708;23.360;2024-02-26T11:34:06;6.70;;;4.03;;
36191;SDS011;22233;42.708;23.360;2024-02-26T11:38:57;5.05;;;4.10;;
36191;SDS011;22233;42.708;23.360;2024-02-26T11:41:23;5.10;;;4.20;;
36191;SDS011;22233;42.708;23.360;2024-02-26T11:43:49;6.70;;;4.55;;
36191;SDS011;22233;42.708;23.360;2024-02-26T11:51:55;5.47;;;3.80;;
36191;SDS011;22233;42.708;23.360;2024-02-26T11:54:38;6.57;;;3.42;;
36191;SDS011;22233;42.708;23.360;2024-02-26T11:57:38;5.95;;;4.22;;
36191;SDS011;22233;42.708;23.360;2024-02-26T12:00:12;7.38;;;4.32;;
36191;SDS011;22233;42.708;23.360;2024-02-26T12:08:16;6.60;;;4.50;;
36191;SDS011;22233;42.708;23.360;2024-02-26T12:10:37;8.10;;;5.10;;
36191;SDS011;22233;42.708;23.360;2024-02-26T12:15:37;7.75;;;5.07;;
36191;SDS011;22233;42.708;23.360;2024-02-26T12:18:05;7.78;;;4.57;;
36191;SDS011;22233;42.708;23.360;2024-02-26T12:20:32;6.40;;;4.03;;
36191;SDS011;22233;42.708;23.360;2024-02-26T12:22:57;7.03;;;4.28;;
36191;SDS011;22233;42.708;23.360;2024-02-26T12:25:24;7.78;;;5.22;;
36191;SDS011;22233;42.708;23.360;2024-02-26T12:27:54;6.65;;;4.60;;
36191;SDS011;22233;42.708;23.360;2024-02-26T12:30:19;5.72;;;4.25;;
36191;SDS011;22233;42.708;23.360;2024-02-26T12:32:49;10.65;;;4.43;;
36191;SDS011;22233;42.708;23.360;2024-02-26T12:35:16;12.02;;;5.13;;
36191;SDS011;22233;42.708;23.360;2024-02-26T12:37:42;5.15;;;4.03;;
36191;SDS011;22233;42.708;23.360;2024-02-26T12:40:08;7.72;;;3.88;;
36191;SDS011;22233;42.708;23.360;2024-02-26T12:42:34;5.07;;;3.60;;
36191;SDS011;22233;42.708;23.360;2024-02-26T12:45:07;4.95;;;3.35;;
36191;SDS011;22233;42.708;23.360;2024-02-26T12:47:43;7.85;;;3.92;;
36191;SDS011;22233;42.708;23.360;2024-02-26T12:50:10;7.05;;;4.30;;
36191;SDS011;22233;42.708;23.360;2024-02-26T12:52:40;6.38;;;3.85;;
36191;SDS011;22233;42.708;23.360;2024-02-26T12:55:08;5.68;;;4.13;;
36191;SDS011;22233;42.708;23.360;2024-02-26T12:57:38;6.47;;;3.75;;
36191;SDS011;22233;42.708;23.360;2024-02-26T13:00:04;5.88;;;4.07;;
36191;SDS011;22233;42.708;23.360;2024-02-26T13:02:34;4.72;;;3.80;;
36191;SDS011;22233;42.708;23.360;2024-02-26T13:05:01;6.95;;;3.40;;
36191;SDS011;22233;42.708;23.360;2024-02-26T13:07:27;4.67;;;3.30;;
36191;SDS011;22233;42.708;23.360;2024-02-26T13:09:53;7.93;;;3.67;;
36191;SDS011;22233;42.708;23.360;2024-02-26T13:12:18;4.72;;;3.40;;
36191;SDS011;22233;42.708;23.360;2024-02-26T13:14:44;5.97;;;3.78;;
36191;SDS011;22233;42.708;23.360;2024-02-26T13:17:09;3.90;;;3.33;;
36191;SDS011;22233;42.708;23.360;2024-02-26T13:19:35;6.05;;;3.50;;
36191;SDS011;22233;42.708;23.360;2024-02-26T13:22:09;5.80;;;3.40;;
36191;SDS011;22233;42.708;23.360;2024-02-26T13:24:35;9.05;;;3.72;;
36191;SDS011;22233;42.708;23.360;2024-02-26T13:27:01;12.05;;;3.67;;
36191;SDS011;22233;42.708;23.360;2024-02-26T13:29:30;6.15;;;3.85;;
36191;SDS011;22233;42.708;23.360;2024-02-26T13:31:57;5.10;;;3.30;;
36191;SDS011;22233;42.708;23.360;2024-02-26T13:34:23;5.90;;;3.65;;
36191;SDS011;22233;42.708;23.360;2024-02-26T13:36:53;6.90;;;4.15;;
36191;SDS011;22233;42.708;23.360;2024-02-26T13:39:26;5.13;;;3.60;;
36191;SDS011;22233;42.708;23.360;2024-02-26T13:41:52;4.78;;;3.08;;
36191;SDS011;22233;42.708;23.360;2024-02-26T13:44:21;6.38;;;3.47;;
36191;SDS011;22233;42.708;23.360;2024-02-26T13:46:47;4.88;;;3.80;;
36191;SDS011;22233;42.708;23.360;2024-02-26T13:49:13;5.88;;;3.72;;
36191;SDS011;22233;42.708;23.360;2024-02-26T13:51:39;5.57;;;3.58;;
36191;SDS011;22233;42.708;23.360;2024-02-26T13:54:04;5.68;;;3.53;;
36191;SDS011;22233;42.708;23.360;2024-02-26T13:56:30;5.75;;;2.90;;
36191;SDS011;22233;42.708;23.360;2024-02-26T13:58:56;4.55;;;3.25;;
36191;SDS011;22233;42.708;23.360;2024-02-26T14:01:22;7.10;;;3.30;;
36191;SDS011;22233;42.708;23.360;2024-02-26T14:03:47;6.18;;;3.33;;
36191;SDS011;22233;42.708;23.360;2024-02-26T14:06:13;5.30;;;3.35;;
36191;SDS011;22233;42.708;23.360;2024-02-26T14:08:39;9.82;;;3.47;;
36191;SDS011;22233;42.708;23.360;2024-02-26T14:11:04;6.20;;;3.80;;
36191;SDS011;22233;42.708;23.360;2024-02-26T14:13:29;6.20;;;4.00;;
36191;SDS011;22233;42.708;23.360;2024-02-26T14:15:55;6.65;;;3.75;;
36191;SDS011;22233;42.708;23.360;2024-02-26T14:18:21;6.78;;;3.95;;
36191;SDS011;22233;42.708;23.360;2024-02-26T14:20:46;4.55;;;3.38;;
36191;SDS011;22233;42.708;23.360;2024-02-26T14:23:11;7.40;;;3.97;;
36191;SDS011;22233;42.708;23.360;2024-02-26T14:25:37;5.10;;;3.85;;
36191;SDS011;22233;42.708;23.360;2024-02-26T14:28:02;5.78;;;3.08;;